Time;durP1;ratioP1;P1;durP2;ratioP2;P2;SDS_P1;SDS_P2;PMS_P1;PMS_P2;Temp;Humidity;BMP_temperature;BMP_pressure;BME280_temperature;BME280_humidity;BME280_pressure;Samples;Min_cycle;Max_cycle;Signal;HPM_P1;HPM_P2
2023/06/10 00:00:08;;;;;;;27.70;17.10;;;;;;;18.78;100.00;98660.60;134639;1272;22553;-67
2023/06/10 00:03:30;;;;;;;29.10;15.90;;;;;;;18.77;100.00;98658.77;134786;1288;22536;-70
2023/06/10 00:06:35;;;;;;;26.20;14.90;;;;;;;18.78;100.00;98656.02;134715;1277;22644;-62
2023/06/10 00:09:38;;;;;;;27.70;13.50;;;;;;;18.72;100.00;98657.30;134633;1288;22548;-67
2023/06/10 00:12:41;;;;;;;27.20;14.00;;;;;;;18.72;100.00;98655.69;134745;1288;22648;-71
2023/06/10 00:15:44;;;;;;;25.70;13.20;;;;;;;18.66;100.00;98654.98;134821;1288;24273;-63
2023/06/10 00:18:48;;;;;;;26.90;14.00;;;;;;;18.70;100.00;98652.52;134812;1288;22649;-64
2023/06/10 00:21:52;;;;;;;25.60;12.30;;;;;;;18.67;100.00;98652.91;134820;1277;22536;-66
2023/06/10 00:24:54;;;;;;;28.60;13.10;;;;;;;18.68;100.00;98655.71;134971;1283;25426;-62
2023/06/10 00:27:57;;;;;;;29.20;14.20;;;;;;;18.62;100.00;98656.64;135199;1282;22540;-70
2023/06/10 00:30:59;;;;;;;27.40;14.40;;;;;;;18.59;100.00;98659.60;135233;1282;22558;-71
2023/06/10 00:34:02;;;;;;;27.30;15.00;;;;;;;18.64;100.00;98661.94;135153;1282;22569;-68
2023/06/10 00:37:04;;;;;;;27.50;15.20;;;;;;;18.65;100.00;98660.90;135190;1282;22527;-65
2023/06/10 00:40:08;;;;;;;29.40;15.80;;;;;;;18.64;100.00;98661.15;135194;1282;22572;-69
2023/06/10 00:43:11;;;;;;;25.90;15.40;;;;;;;18.68;100.00;98664.52;135183;1282;22533;-70
2023/06/10 00:46:13;;;;;;;27.20;14.90;;;;;;;18.66;100.00;98665.98;135186;1282;22639;-63
2023/06/10 00:49:16;;;;;;;29.80;15.80;;;;;;;18.66;100.00;98666.35;135205;1282;22543;-69
2023/06/10 00:52:19;;;;;;;28.60;14.90;;;;;;;18.69;100.00;98669.40;135105;1282;22529;-67
2023/06/10 00:55:23;;;;;;;28.70;16.40;;;;;;;18.69;100.00;98671.50;135177;1282;22538;-72
2023/06/10 00:58:25;;;;;;;35.90;16.30;;;;;;;18.78;100.00;98675.52;135245;1265;22766;-63
2023/06/10 01:01:29;;;;;;;28.20;16.50;;;;;;;18.70;100.00;98675.33;135191;1282;22552;-63
2023/06/10 01:04:31;;;;;;;27.70;15.70;;;;;;;18.63;100.00;98676.35;135195;1282;22645;-71
2023/06/10 01:07:35;;;;;;;30.90;18.80;;;;;;;18.51;100.00;98676.11;135192;1283;23130;-62
2023/06/10 01:10:37;;;;;;;28.40;17.30;;;;;;;18.39;100.00;98670.73;135188;1282;22554;-66
2023/06/10 01:13:40;;;;;;;31.80;16.80;;;;;;;18.44;100.00;98669.81;135152;1282;22530;-71
2023/06/10 01:16:45;;;;;;;29.00;16.20;;;;;;;18.46;100.00;98674.31;135177;1282;25397;-65
2023/06/10 01:19:47;;;;;;;29.70;15.80;;;;;;;18.42;100.00;98676.27;135205;1282;22558;-68
2023/06/10 01:22:50;;;;;;;28.30;14.30;;;;;;;18.43;100.00;98677.23;135177;1282;22542;-65
2023/06/10 01:25:53;;;;;;;27.40;14.30;;;;;;;18.41;100.00;98684.49;135184;1282;22546;-69
2023/06/10 01:28:56;;;;;;;27.70;13.50;;;;;;;18.37;100.00;98685.80;135186;1282;22524;-69
2023/06/10 01:31:59;;;;;;;25.40;13.70;;;;;;;18.40;100.00;98685.27;135172;1283;24730;-69
2023/06/10 01:35:01;;;;;;;28.20;14.20;;;;;;;18.44;100.00;98684.95;135167;1282;24190;-73
2023/06/10 01:38:04;;;;;;;28.80;16.70;;;;;;;18.40;100.00;98689.91;135167;1282;22530;-62
2023/06/10 01:41:07;;;;;;;27.40;15.80;;;;;;;18.30;100.00;98695.84;135203;1282;22531;-63
2023/06/10 01:44:10;;;;;;;25.70;14.10;;;;;;;18.13;100.00;98695.27;135172;1282;22593;-61
2023/06/10 01:47:12;;;;;;;27.20;14.20;;;;;;;18.10;100.00;98696.57;135180;1282;22566;-64
2023/06/10 01:50:16;;;;;;;25.30;13.30;;;;;;;18.00;100.00;98694.92;135182;1282;22552;-65
2023/06/10 01:53:18;;;;;;;26.30;12.70;;;;;;;17.96;100.00;98696.90;135181;1282;22571;-69
2023/06/10 01:56:21;;;;;;;24.90;12.40;;;;;;;17.93;100.00;98699.44;135214;1282;22527;-71
2023/06/10 01:59:23;;;;;;;23.50;11.10;;;;;;;18.04;100.00;98701.11;135161;1282;25413;-66
2023/06/10 02:02:26;;;;;;;24.40;10.30;;;;;;;17.93;100.00;98697.70;135175;1282;25356;-68
2023/06/10 02:05:29;;;;;;;25.40;10.20;;;;;;;17.91;100.00;98699.11;135199;1282;22526;-69
2023/06/10 02:08:31;;;;;;;22.00;9.40;;;;;;;17.93;100.00;98699.94;135199;1282;22634;-72
2023/06/10 02:11:33;;;;;;;21.70;9.60;;;;;;;17.95;100.00;98705.44;135142;1282;22541;-63
2023/06/10 02:14:36;;;;;;;21.60;9.40;;;;;;;17.94;100.00;98704.68;135198;1282;22556;-69
2023/06/10 02:17:38;;;;;;;21.50;9.10;;;;;;;17.91;100.00;98702.13;135171;1282;22561;-69
2023/06/10 02:20:41;;;;;;;22.30;9.50;;;;;;;17.92;100.00;98703.04;135186;1282;22534;-63
2023/06/10 02:23:43;;;;;;;23.10;10.30;;;;;;;18.02;100.00;98705.20;135147;1283;22540;-67
2023/06/10 02:26:47;;;;;;;25.50;10.20;;;;;;;18.07;100.00;98707.14;135193;1282;22775;-65
2023/06/10 02:29:50;;;;;;;25.10;10.70;;;;;;;18.03;100.00;98705.38;135213;1282;25284;-69
2023/06/10 02:32:52;;;;;;;24.50;11.30;;;;;;;18.07;100.00;98705.02;135166;1264;24215;-70
2023/06/10 02:35:55;;;;;;;23.00;10.10;;;;;;;18.06;100.00;98708.33;135191;1274;22540;-64
2023/06/10 02:38:57;;;;;;;20.90;9.00;;;;;;;18.05;100.00;98706.84;135176;1282;22643;-67
2023/06/10 02:42:00;;;;;;;20.50;8.50;;;;;;;18.07;100.00;98705.75;135203;1283;23417;-62
2023/06/10 02:45:02;;;;;;;21.20;8.80;;;;;;;18.05;100.00;98701.34;135175;1282;22553;-71
2023/06/10 02:48:05;;;;;;;22.20;8.90;;;;;;;18.03;100.00;98702.43;135191;1282;22558;-62
2023/06/10 02:51:07;;;;;;;22.00;9.50;;;;;;;17.95;100.00;98702.78;135108;1282;22567;-62
2023/06/10 02:54:09;;;;;;;23.60;10.60;;;;;;;17.88;100.00;98707.65;135181;1283;22558;-63
2023/06/10 02:57:14;;;;;;;23.20;9.50;;;;;;;17.85;100.00;98706.56;135088;1282;22580;-68
2023/06/10 03:00:16;;;;;;;21.60;10.00;;;;;;;17.83;100.00;98712.59;135039;1282;22867;-64
2023/06/10 03:03:20;;;;;;;22.80;8.60;;;;;;;17.76;100.00;98712.80;135162;1283;22575;-62
2023/06/10 03:06:24;;;;;;;20.80;7.70;;;;;;;17.74;100.00;98713.55;135193;1282;22567;-69
2023/06/10 03:09:26;;;;;;;20.60;8.80;;;;;;;17.69;100.00;98713.65;135175;1282;22540;-67
2023/06/10 03:12:29;;;;;;;21.30;8.60;;;;;;;17.66;100.00;98714.42;135194;1267;22555;-62
2023/06/10 03:15:32;;;;;;;21.80;8.80;;;;;;;17.62;100.00;98713.91;135200;1282;22557;-70
2023/06/10 03:18:35;;;;;;;21.00;8.90;;;;;;;17.66;100.00;98718.55;135081;1283;22550;-63
2023/06/10 03:21:38;;;;;;;22.40;9.10;;;;;;;17.64;100.00;98724.23;135214;1283;23343;-68
2023/06/10 03:24:41;;;;;;;22.50;9.90;;;;;;;17.61;100.00;98727.31;135206;1282;22542;-65
2023/06/10 03:27:43;;;;;;;23.30;9.90;;;;;;;17.68;100.00;98738.46;135161;1282;22907;-68
2023/06/10 03:30:45;;;;;;;22.10;9.30;;;;;;;17.80;100.00;98741.96;135154;1282;24282;-62
2023/06/10 03:33:48;;;;;;;22.80;10.90;;;;;;;17.80;100.00;98746.77;135189;1282;22538;-62
2023/06/10 03:36:50;;;;;;;;;;;;;;;17.77;100.00;98750.04;135176;1272;25349;-62
2023/06/10 03:39:53;;;;;;;22.30;10.60;;;;;;;17.85;100.00;98745.59;135161;1264;22576;-69
2023/06/10 03:42:55;;;;;;;;;;;;;;;17.88;100.00;98750.48;135199;1270;22519;-63
2023/06/10 03:45:57;;;;;;;22.20;9.90;;;;;;;17.91;100.00;98757.64;134969;1282;22555;-68
2023/06/10 03:49:01;;;;;;;22.80;9.60;;;;;;;17.93;100.00;98753.56;135167;1282;22525;-63
2023/06/10 03:52:03;;;;;;;22.80;10.00;;;;;;;17.99;100.00;98753.23;135202;1282;22579;-68
2023/06/10 03:55:05;;;;;;;21.90;10.00;;;;;;;18.06;100.00;98755.20;135185;1282;22559;-62
2023/06/10 03:58:08;;;;;;;21.90;9.50;;;;;;;18.11;100.00;98753.52;135158;1282;22526;-68
2023/06/10 04:01:13;;;;;;;20.50;9.10;;;;;;;18.24;100.00;98753.21;135031;1282;22554;-63
2023/06/10 04:04:16;;;;;;;22.10;9.50;;;;;;;18.37;100.00;98757.09;135194;1282;23139;-66
2023/06/10 04:07:20;;;;;;;21.50;9.30;;;;;;;18.51;100.00;98754.74;135193;1282;22530;-67
2023/06/10 04:10:23;;;;;;;23.80;9.80;;;;;;;18.61;100.00;98759.27;135207;1282;25525;-70
2023/06/10 04:13:26;;;;;;;22.80;9.40;;;;;;;18.60;100.00;98762.55;135126;1282;26551;-61
2023/06/10 04:16:28;;;;;;;27.80;11.80;;;;;;;18.68;100.00;98762.30;135217;1263;22693;-62
2023/06/10 04:19:31;;;;;;;24.60;12.70;;;;;;;18.69;100.00;98761.52;135219;1282;22535;-68
2023/06/10 04:22:33;;;;;;;28.50;13.40;;;;;;;18.84;100.00;98767.38;135186;1282;22538;-62
2023/06/10 04:25:35;;;;;;;25.30;12.30;;;;;;;18.80;100.00;98764.48;135168;1282;22546;-61
2023/06/10 04:28:38;;;;;;;23.40;10.90;;;;;;;18.68;100.00;98764.42;135152;1282;22682;-63
2023/06/10 04:31:40;;;;;;;22.80;10.40;;;;;;;18.72;100.00;98763.71;135019;1282;23334;-62
2023/06/10 04:34:43;;;;;;;24.60;11.10;;;;;;;18.68;100.00;98763.39;134979;1282;22653;-62
2023/06/10 04:37:46;;;;;;;25.40;10.50;;;;;;;18.68;100.00;98766.16;135119;1282;22690;-63
2023/06/10 04:40:48;;;;;;;23.30;9.70;;;;;;;18.70;100.00;98763.70;135158;1282;22532;-65
2023/06/10 04:43:51;;;;;;;24.00;11.80;;;;;;;18.77;100.00;98764.09;135057;1282;22538;-64
2023/06/10 04:46:54;;;;;;;24.40;12.60;;;;;;;18.78;100.00;98767.91;135107;1282;22536;-64
2023/06/10 04:49:57;;;;;;;23.50;11.70;;;;;;;18.93;100.00;98767.14;135121;1282;22555;-62
2023/06/10 04:52:59;;;;;;;30.50;12.40;;;;;;;19.05;100.00;98770.80;135111;1282;22653;-62
2023/06/10 04:56:02;;;;;;;25.00;11.20;;;;;;;19.04;100.00;98774.52;135137;1264;22534;-62
2023/06/10 04:59:04;;;;;;;22.00;10.20;;;;;;;19.02;100.00;98777.52;135155;1282;22693;-65
2023/06/10 05:02:07;;;;;;;22.30;9.70;;;;;;;19.07;100.00;98780.06;135124;1282;22532;-63
2023/06/10 05:05:09;;;;;;;20.70;9.10;;;;;;;19.12;100.00;98780.10;134975;1282;23320;-68
2023/06/10 05:08:12;;;;;;;23.00;9.50;;;;;;;19.08;100.00;98778.85;135203;1259;22521;-63
2023/06/10 05:11:14;;;;;;;21.20;9.50;;;;;;;19.17;100.00;98778.02;135155;1282;22686;-66
2023/06/10 05:14:18;;;;;;;22.90;10.10;;;;;;;19.15;100.00;98785.67;135169;1282;22537;-62
2023/06/10 05:17:21;;;;;;;21.20;9.80;;;;;;;19.11;100.00;98794.36;135002;1282;22572;-69
2023/06/10 05:20:25;;;;;;;26.10;11.80;;;;;;;19.17;100.00;98796.06;135116;1264;22526;-71
2023/06/10 05:23:27;;;;;;;25.90;12.30;;;;;;;19.36;100.00;98798.15;135149;1282;22548;-68
2023/06/10 05:26:31;;;;;;;21.90;11.50;;;;;;;19.53;100.00;98800.58;134996;1282;23238;-71
2023/06/10 05:29:34;;;;;;;22.10;10.20;;;;;;;19.63;100.00;98800.88;135145;1264;22555;-68
2023/06/10 05:32:36;;;;;;;21.70;9.30;;;;;;;19.71;100.00;98803.41;135144;1282;22550;-62
2023/06/10 05:35:39;;;;;;;22.10;9.00;;;;;;;19.81;100.00;98801.33;134975;1282;24358;-62
2023/06/10 05:38:42;;;;;;;21.90;9.50;;;;;;;20.02;100.00;98806.08;135129;1282;22593;-65
2023/06/10 05:41:44;;;;;;;22.40;9.40;;;;;;;20.17;100.00;98802.88;135138;1282;22544;-67
2023/06/10 05:44:47;;;;;;;21.30;9.50;;;;;;;20.15;100.00;98805.65;135132;1282;22556;-63
2023/06/10 05:47:49;;;;;;;19.70;8.60;;;;;;;20.21;100.00;98810.72;135059;1282;22540;-70
2023/06/10 05:50:51;;;;;;;19.80;7.80;;;;;;;20.25;100.00;98808.02;135146;1282;22532;-71
2023/06/10 05:53:54;;;;;;;21.90;8.60;;;;;;;20.41;100.00;98811.69;135139;1264;22647;-71
2023/06/10 05:56:56;;;;;;;21.70;8.30;;;;;;;20.61;100.00;98812.16;135151;1282;22549;-65
2023/06/10 05:59:59;;;;;;;18.30;7.10;;;;;;;20.73;100.00;98813.63;135160;1282;22540;-68
2023/06/10 06:03:01;;;;;;;16.70;7.00;;;;;;;20.83;100.00;98815.77;135136;1282;22527;-71
2023/06/10 06:06:03;;;;;;;18.10;7.40;;;;;;;20.85;100.00;98815.09;135011;1282;22548;-69
2023/06/10 06:09:06;;;;;;;18.60;7.50;;;;;;;20.98;100.00;98816.90;135076;1282;22523;-64
2023/06/10 06:12:08;;;;;;;19.30;7.00;;;;;;;20.96;100.00;98814.92;135072;1282;25255;-64
2023/06/10 06:15:11;;;;;;;16.50;6.40;;;;;;;21.34;100.00;98815.70;135144;1282;24212;-65
2023/06/10 06:18:13;;;;;;;17.80;6.60;;;;;;;21.71;100.00;98817.05;135067;1282;22553;-73
2023/06/10 06:21:16;;;;;;;18.60;6.40;;;;;;;22.37;100.00;98812.02;135125;1282;22534;-67
2023/06/10 06:24:18;;;;;;;18.40;6.50;;;;;;;22.89;100.00;98812.63;135144;1282;22613;-65
2023/06/10 06:27:20;;;;;;;18.40;6.70;;;;;;;23.07;100.00;98813.58;135138;1282;22547;-63
2023/06/10 06:30:23;;;;;;;16.80;6.50;;;;;;;22.80;100.00;98817.61;135131;1282;22565;-64
2023/06/10 06:33:26;;;;;;;18.60;6.20;;;;;;;22.59;100.00;98823.19;135113;1264;24212;-69
2023/06/10 06:36:28;;;;;;;18.40;6.00;;;;;;;22.54;100.00;98823.40;135115;1282;22529;-64
2023/06/10 06:39:31;;;;;;;16.00;5.50;;;;;;;22.36;100.00;98829.11;135105;1282;22550;-65
2023/06/10 06:42:33;;;;;;;16.20;6.00;;;;;;;22.27;100.00;98833.11;135117;1282;24216;-68
2023/06/10 06:45:35;;;;;;;17.90;6.30;;;;;;;22.33;100.00;98838.27;135115;1264;22550;-64
2023/06/10 06:48:38;;;;;;;17.20;5.90;;;;;;;22.52;100.00;98842.29;135126;1282;22540;-65
2023/06/10 06:51:40;;;;;;;17.60;6.20;;;;;;;22.56;100.00;98839.07;135157;1282;22544;-71
2023/06/10 06:54:43;;;;;;;18.50;6.70;;;;;;;22.64;100.00;98837.98;135086;1282;22563;-65
2023/06/10 06:57:45;;;;;;;16.70;6.20;;;;;;;23.03;100.00;98836.46;135122;1282;22544;-73
2023/06/10 07:00:47;;;;;;;17.00;5.70;;;;;;;23.71;100.00;98838.96;135120;1282;22536;-65
2023/06/10 07:03:50;;;;;;;18.20;6.10;;;;;;;24.06;100.00;98835.09;135129;1264;22533;-64
2023/06/10 07:06:52;;;;;;;16.10;5.70;;;;;;;24.24;99.42;98836.71;135149;1282;22541;-65
2023/06/10 07:09:55;;;;;;;17.30;5.90;;;;;;;24.77;100.00;98837.91;135453;1280;22527;-63
2023/06/10 07:12:57;;;;;;;18.20;5.40;;;;;;;25.25;98.36;98846.66;135318;1280;22541;-66
2023/06/10 07:16:00;;;;;;;20.10;5.70;;;;;;;25.70;97.27;98850.70;135501;1280;22553;-64
2023/06/10 07:19:02;;;;;;;14.30;5.10;;;;;;;26.11;95.18;98851.46;135343;1280;22557;-71
2023/06/10 07:22:05;;;;;;;15.60;5.40;;;;;;;26.32;85.71;98856.84;135471;1280;22564;-74
2023/06/10 07:25:07;;;;;;;14.30;5.20;;;;;;;26.45;87.71;98851.70;135494;1280;22527;-66
2023/06/10 07:28:10;;;;;;;17.10;5.20;;;;;;;26.69;81.63;98856.41;135460;1280;22650;-71
2023/06/10 07:31:12;;;;;;;14.10;5.00;;;;;;;26.85;83.98;98852.55;135436;1280;22549;-65
2023/06/10 07:34:15;;;;;;;15.30;5.30;;;;;;;27.12;81.89;98852.85;135362;1280;22553;-66
2023/06/10 07:37:19;;;;;;;17.70;5.20;;;;;;;27.00;79.03;98853.95;135485;1280;22574;-69
2023/06/10 07:40:22;;;;;;;17.30;4.90;;;;;;;27.07;78.72;98854.50;135467;1280;22557;-71
2023/06/10 07:43:24;;;;;;;14.30;5.20;;;;;;;27.13;71.40;98853.82;135379;1280;22536;-66
2023/06/10 07:46:27;;;;;;;14.50;5.30;;;;;;;26.92;70.74;98853.75;135471;1280;22537;-69
2023/06/10 07:49:30;;;;;;;13.20;5.20;;;;;;;26.66;74.07;98857.83;135446;1280;22537;-64
2023/06/10 07:52:32;;;;;;;15.30;5.50;;;;;;;26.48;74.83;98859.44;135450;1261;22543;-63
2023/06/10 07:55:34;;;;;;;14.30;5.10;;;;;;;26.15;74.23;98862.25;135455;1280;22524;-64
2023/06/10 07:58:37;;;;;;;14.40;5.60;;;;;;;26.10;72.84;98863.15;135435;1280;24230;-63
2023/06/10 08:01:39;;;;;;;14.90;5.40;;;;;;;26.08;72.50;98865.49;135422;1280;22580;-64
2023/06/10 08:04:42;;;;;;;13.60;5.10;;;;;;;26.06;71.13;98865.80;135291;1261;24205;-71
2023/06/10 08:07:44;;;;;;;13.00;5.20;;;;;;;26.22;70.94;98871.97;135450;1276;22523;-66
2023/06/10 08:10:48;;;;;;;17.40;5.60;;;;;;;26.66;72.41;98875.25;135403;1280;22613;-65
2023/06/10 08:13:51;;;;;;;14.80;5.60;;;;;;;27.17;69.02;98874.95;135416;1280;22554;-64
2023/06/10 08:16:53;;;;;;;17.00;5.30;;;;;;;27.61;66.98;98881.28;135448;1280;22563;-65
2023/06/10 08:19:56;;;;;;;17.20;5.20;;;;;;;27.72;66.18;98883.05;135419;1280;22537;-69
2023/06/10 08:22:58;;;;;;;14.90;5.30;;;;;;;28.05;63.94;98883.80;135417;1280;22535;-66
2023/06/10 08:26:00;;;;;;;14.70;5.00;;;;;;;28.42;63.89;98880.74;135449;1280;22531;-64
2023/06/10 08:29:03;;;;;;;15.70;4.90;;;;;;;28.05;60.49;98888.39;135435;1280;26509;-67
2023/06/10 08:32:05;;;;;;;17.40;4.80;;;;;;;27.99;62.50;98887.56;135428;1280;22539;-64
2023/06/10 08:35:08;;;;;;;11.20;4.50;;;;;;;28.17;62.27;98889.74;135397;1268;22532;-64
2023/06/10 08:38:11;;;;;;;13.30;4.50;;;;;;;28.38;59.22;98892.45;135422;1260;24209;-65
2023/06/10 08:41:14;;;;;;;11.50;4.50;;;;;;;28.60;58.46;98889.21;135394;1280;22521;-70
2023/06/10 08:44:18;;;;;;;13.30;4.60;;;;;;;28.79;53.77;98883.27;135201;1280;22556;-73
2023/06/10 08:47:21;;;;;;;11.70;4.20;;;;;;;28.85;56.48;98879.36;135227;1280;24233;-64
2023/06/10 08:50:23;;;;;;;16.00;4.50;;;;;;;29.24;56.93;98879.00;135318;1262;22557;-68
2023/06/10 08:53:26;;;;;;;12.60;4.40;;;;;;;29.53;53.43;98878.02;135374;1280;22545;-74
2023/06/10 08:56:29;;;;;;;14.70;4.70;;;;;;;29.51;50.50;98878.52;135307;1280;22564;-67
2023/06/10 08:59:31;;;;;;;13.40;4.60;;;;;;;28.99;51.88;98884.61;135358;1281;22525;-69
2023/06/10 09:02:35;;;;;;;16.40;4.70;;;;;;;28.68;52.01;98888.64;135392;1262;22538;-64
2023/06/10 09:05:37;;;;;;;15.00;4.80;;;;;;;28.56;52.44;98885.81;135351;1280;22550;-64
2023/06/10 09:08:40;;;;;;;14.30;4.50;;;;;;;28.20;51.94;98884.77;135357;1281;22548;-63
2023/06/10 09:11:42;;;;;;;15.00;4.60;;;;;;;28.11;54.67;98888.48;135381;1280;23393;-70
2023/06/10 09:14:45;;;;;;;13.10;4.80;;;;;;;28.33;54.32;98886.15;135369;1280;24478;-71
2023/06/10 09:17:48;;;;;;;12.50;4.90;;;;;;;28.30;55.04;98885.57;135392;1276;24377;-67
2023/06/10 09:20:50;;;;;;;13.20;4.60;;;;;;;28.51;56.71;98884.80;135189;1280;22539;-71
2023/06/10 09:23:52;;;;;;;13.80;4.70;;;;;;;28.72;52.72;98882.13;135331;1280;22658;-64
2023/06/10 09:26:55;;;;;;;13.80;4.80;;;;;;;28.65;53.22;98889.59;135202;1268;22638;-67
2023/06/10 09:29:58;;;;;;;13.00;4.70;;;;;;;29.07;54.82;98892.48;135349;1280;22746;-64
2023/06/10 09:33:01;;;;;;;13.10;4.70;;;;;;;29.38;51.67;98885.36;135327;1280;22517;-67
2023/06/10 09:36:03;;;;;;;13.80;4.60;;;;;;;29.35;49.33;98882.88;135395;1280;22530;-65
2023/06/10 09:39:06;;;;;;;11.40;4.30;;;;;;;29.16;48.08;98888.41;135321;1259;22577;-65
2023/06/10 09:42:08;;;;;;;15.00;4.80;;;;;;;29.01;50.46;98888.66;135358;1262;22646;-64
2023/06/10 09:45:11;;;;;;;12.90;4.80;;;;;;;28.84;48.86;98884.50;135354;1280;26596;-67
2023/06/10 09:48:15;;;;;;;14.00;4.60;;;;;;;29.16;49.75;98884.47;135347;1280;22543;-63
2023/06/10 09:51:17;;;;;;;13.10;4.10;;;;;;;29.78;50.52;98881.47;135343;1280;22540;-70
2023/06/10 09:54:20;;;;;;;13.90;4.70;;;;;;;30.16;48.79;98881.43;135376;1280;22605;-64
2023/06/10 09:57:23;;;;;;;16.10;5.70;;;;;;;30.31;47.80;98882.83;135352;1280;22530;-64
2023/06/10 10:00:25;;;;;;;12.70;4.30;;;;;;;30.36;48.43;98875.16;135345;1280;22538;-68
2023/06/10 10:03:29;;;;;;;15.80;4.90;;;;;;;30.44;47.15;98876.12;135392;1280;22516;-71
2023/06/10 10:06:31;;;;;;;12.10;4.80;;;;;;;29.88;47.34;98880.15;135373;1280;22525;-64
2023/06/10 10:09:34;;;;;;;15.80;5.40;;;;;;;29.01;48.79;98882.16;135348;1280;22536;-70
2023/06/10 10:12:37;;;;;;;13.40;5.00;;;;;;;28.38;50.44;98881.70;135373;1262;22537;-70
2023/06/10 10:15:41;;;;;;;14.60;5.40;;;;;;;27.80;51.88;98885.59;135352;1280;22525;-64
2023/06/10 10:18:43;;;;;;;14.20;5.40;;;;;;;27.34;53.38;98882.99;135363;1280;22623;-64
2023/06/10 10:21:46;;;;;;;13.90;5.00;;;;;;;27.01;53.95;98881.25;135362;1280;22541;-69
2023/06/10 10:24:48;;;;;;;14.20;5.40;;;;;;;26.85;53.81;98882.80;135376;1280;22522;-65
2023/06/10 10:27:51;;;;;;;14.50;5.60;;;;;;;26.77;54.62;98879.58;135325;1276;22559;-71
2023/06/10 10:30:53;;;;;;;15.80;4.90;;;;;;;26.91;54.84;98882.98;135325;1276;22530;-64
2023/06/10 10:33:56;;;;;;;14.50;4.90;;;;;;;27.09;53.55;98878.13;135308;1273;22552;-76
2023/06/10 10:36:58;;;;;;;13.50;4.80;;;;;;;27.11;52.30;98877.89;135342;1280;22541;-71
2023/06/10 10:40:01;;;;;;;14.30;5.00;;;;;;;27.22;52.34;98875.55;135381;1280;22541;-70
2023/06/10 10:43:03;;;;;;;17.10;5.40;;;;;;;27.43;52.35;98878.60;135351;1280;24871;-64
2023/06/10 10:46:06;;;;;;;13.10;4.80;;;;;;;27.79;51.57;98876.86;135319;1280;22656;-69
2023/06/10 10:49:08;;;;;;;15.60;5.00;;;;;;;27.81;50.00;98875.85;135370;1280;22537;-67
2023/06/10 10:52:11;;;;;;;11.90;4.60;;;;;;;28.11;50.48;98874.10;135385;1280;22534;-64
2023/06/10 10:55:13;;;;;;;13.70;4.70;;;;;;;28.34;49.18;98870.54;135357;1281;22545;-66
2023/06/10 10:58:16;;;;;;;12.30;4.90;;;;;;;28.58;51.06;98868.77;135333;1280;24196;-76
2023/06/10 11:01:18;;;;;;;15.40;4.70;;;;;;;29.00;49.78;98868.02;135380;1281;22535;-73
2023/06/10 11:04:21;;;;;;;13.00;4.70;;;;;;;28.63;49.11;98872.06;135412;1281;22535;-73
2023/06/10 11:07:24;;;;;;;17.30;5.60;;;;;;;28.28;49.39;98865.10;135321;1281;22771;-72
2023/06/10 11:10:26;;;;;;;15.60;5.50;;;;;;;28.52;48.58;98854.60;135215;1280;24276;-65
2023/06/10 11:13:29;;;;;;;17.20;5.70;;;;;;;28.63;47.98;98852.19;135195;1280;22554;-73
2023/06/10 11:16:31;;;;;;;15.70;5.60;;;;;;;28.92;49.91;98842.55;135347;1262;24213;-67
2023/06/10 11:19:34;;;;;;;18.10;5.60;;;;;;;28.88;48.16;98844.59;135348;1281;23659;-72
2023/06/10 11:22:37;;;;;;;14.80;5.40;;;;;;;28.35;48.21;98844.90;135317;1281;25473;-64
2023/06/10 11:25:39;;;;;;;15.50;5.40;;;;;;;27.76;49.60;98843.77;135364;1280;22632;-68
2023/06/10 11:28:42;;;;;;;14.40;5.50;;;;;;;27.50;50.24;98838.58;131412;1280;5380280;-63
2023/06/10 11:31:44;;;;;;;17.60;5.80;;;;;;;27.43;51.12;98835.40;135110;1281;22529;-65
2023/06/10 11:34:47;;;;;;;15.10;5.60;;;;;;;27.36;52.02;98835.65;135320;1281;22542;-65
2023/06/10 11:37:50;;;;;;;16.10;5.60;;;;;;;28.08;51.56;98826.39;135236;1281;22617;-68
2023/06/10 11:40:52;;;;;;;15.70;5.50;;;;;;;28.49;49.44;98824.80;135282;1281;22556;-65
2023/06/10 11:43:55;;;;;;;16.70;5.60;;;;;;;28.29;48.88;98832.92;135342;1281;22549;-71
2023/06/10 11:46:58;;;;;;;16.20;5.90;;;;;;;27.94;50.20;98825.96;135347;1281;22548;-67
2023/06/10 11:50:00;;;;;;;15.60;5.80;;;;;;;28.26;49.80;98823.09;135380;1281;25473;-66
2023/06/10 11:53:03;;;;;;;17.40;6.00;;;;;;;27.80;50.37;98829.55;135316;1281;22545;-73
2023/06/10 11:56:05;;;;;;;16.80;6.00;;;;;;;27.03;51.63;98843.77;135358;1262;24232;-70
2023/06/10 11:59:08;;;;;;;19.30;6.60;;;;;;;25.96;57.39;98852.60;135333;1280;22546;-75
2023/06/10 12:02:10;;;;;;;17.00;6.00;;;;;;;24.84;59.80;98854.95;135325;1262;22522;-64
2023/06/10 12:05:13;;;;;;;22.10;6.80;;;;;;;24.16;61.58;98855.34;135214;1281;22991;-74
2023/06/10 12:08:15;;;;;;;17.90;7.00;;;;;;;23.81;64.65;98850.06;135342;1280;22639;-75
2023/06/10 12:11:18;;;;;;;19.00;7.60;;;;;;;23.71;69.50;98845.85;135373;1281;22539;-76
2023/06/10 12:14:20;;;;;;;19.10;8.20;;;;;;;23.64;72.23;98853.05;135293;1281;24238;-64
2023/06/10 12:17:23;;;;;;;20.80;7.90;;;;;;;23.58;73.62;98851.48;135366;1280;22558;-65
2023/06/10 12:20:26;;;;;;;18.80;7.80;;;;;;;23.52;74.57;98849.64;135387;1280;22525;-65
2023/06/10 12:23:28;;;;;;;20.40;8.00;;;;;;;23.45;76.64;98848.97;135241;1280;22538;-65
2023/06/10 12:26:32;;;;;;;19.00;7.90;;;;;;;23.63;77.61;98847.01;135372;1280;22560;-65
2023/06/10 12:29:34;;;;;;;20.50;7.80;;;;;;;23.77;77.55;98847.84;135252;1280;22601;-66
2023/06/10 12:32:37;;;;;;;19.90;7.70;;;;;;;23.94;77.99;98851.80;135346;1280;22533;-65
2023/06/10 12:35:39;;;;;;;19.90;8.10;;;;;;;24.13;77.73;98846.55;135401;1280;24222;-66
2023/06/10 12:38:42;;;;;;;21.10;8.20;;;;;;;24.43;77.07;98843.27;135359;1280;22529;-67
2023/06/10 12:41:44;;;;;;;20.30;7.00;;;;;;;24.65;75.77;98841.94;135356;1280;22551;-64
2023/06/10 12:44:47;;;;;;;17.50;7.00;;;;;;;24.81;72.58;98839.65;135355;1280;22548;-65
2023/06/10 12:47:50;;;;;;;16.50;6.30;;;;;;;25.05;70.77;98838.20;135355;1280;22573;-70
2023/06/10 12:50:53;;;;;;;16.70;6.30;;;;;;;25.28;67.62;98833.45;135252;1280;22561;-64
2023/06/10 12:53:55;;;;;;;14.50;5.50;;;;;;;25.43;65.21;98826.95;135368;1280;22526;-65
2023/06/10 12:56:58;;;;;;;17.30;5.80;;;;;;;25.56;65.10;98825.16;135335;1280;22553;-67
2023/06/10 13:00:04;;;;;;;14.10;5.30;;;;;;;25.70;61.88;98821.25;135237;1262;22528;-65
2023/06/10 13:03:06;;;;;;;13.10;4.70;;;;;;;25.63;61.27;98820.19;135350;1262;22533;-66
2023/06/10 13:06:09;;;;;;;14.00;5.10;;;;;;;25.63;60.00;98817.63;135280;1257;24263;-75
2023/06/10 13:09:11;;;;;;;13.40;4.80;;;;;;;25.67;60.07;98820.44;135376;1280;22538;-68
2023/06/10 13:12:14;;;;;;;13.10;4.80;;;;;;;25.71;60.17;98811.00;135335;1280;22535;-65
2023/06/10 13:15:16;;;;;;;12.40;4.60;;;;;;;25.74;60.84;98815.79;135290;1280;22608;-71
2023/06/10 13:18:19;;;;;;;16.00;4.90;;;;;;;25.90;60.74;98815.58;135318;1280;22515;-66
2023/06/10 13:21:22;;;;;;;13.00;4.80;;;;;;;26.03;59.08;98810.55;135346;1280;22641;-65
2023/06/10 13:24:24;;;;;;;11.00;4.40;;;;;;;25.98;57.38;98810.67;135366;1280;22529;-65
2023/06/10 13:27:26;;;;;;;12.70;4.30;;;;;;;26.04;56.13;98807.58;135300;1280;25254;-65
2023/06/10 13:30:29;;;;;;;12.40;4.30;;;;;;;26.07;55.23;98808.77;135146;1280;22542;-68
2023/06/10 13:33:32;;;;;;;15.20;5.40;;;;;;;26.28;55.34;98810.45;135305;1280;22553;-66
2023/06/10 13:36:34;;;;;;;12.80;4.40;;;;;;;26.75;54.30;98801.45;135364;1280;22537;-68
2023/06/10 13:39:37;;;;;;;13.10;4.40;;;;;;;27.53;52.22;98808.02;135323;1280;22550;-66
2023/06/10 13:42:39;;;;;;;13.20;4.30;;;;;;;27.89;50.76;98806.75;135340;1280;22641;-67
2023/06/10 13:45:42;;;;;;;10.10;3.90;;;;;;;28.48;49.79;98801.95;135350;1280;22549;-64
2023/06/10 13:48:44;;;;;;;8.20;3.70;;;;;;;29.02;48.69;98798.61;135335;1259;22816;-71
2023/06/10 13:51:47;;;;;;;9.20;3.60;;;;;;;29.15;46.92;98799.32;135355;1280;22553;-68